Effective Sunday, March 17, 2024, the National Weather Service National Data Buoy Center will discontinue its Dial-A-Buoy Interactive Voice Response system. For more information, see Service Change Notice 24-06 (PDF).

Station NMXA2 - Nome, AK Image indicating link to RSS feed of recent meteorological observations for station NMXA2


Conditions at NMXA2 as of
(4:44 pm AKST on 02/29/2024)
0144 GMT on 03/01/2024:
     

Click on the graph icon in the table below to see a time series plot of the last five days of that observation.

5-day plot - Wind Direction Wind Direction (WDIR): E ( 100 deg true )
5-day plot - Wind Speed Wind Speed (WSPD): 3 kts
5-day plot - Wind Gust Wind Gust (GST): 4 kts
5-day plot - Air Temperature Air Temperature (ATMP): -5.3 °F
5-day plot - Dew Point Dew Point (DEWP):-11.4 °F
5-day plot - Wind Chill Wind Chill (CHILL):-13.7 °F
5-day plot - Wind Speed at 10 Meters Wind Speed at 10 meters (WSPD10M): 4 kts
5-day plot - Wind Speed at 20 Meters Wind Speed at 20 meters (WSPD20M): 4 kts
5-day plot -  Wind Speed, Wind Gust and Atmospheric Pressure Combined plot of Wind Speed, Gust, and Air Pressure
Previous observations
TIME
(AKST)
5-day plot - Wind Direction
WDIR
 
5-day plot - Wind Speed
WSPD
kts
5-day plot - Wind Gust
GST
kts
5-day plot - Wave Height
WVHT
ft
5-day plot - Dominant Wave Period
DPD
sec
5-day plot - Average Wave Period
APD
sec
5-day plot - Mean Wave Direction
MWD
 
5-day plot - Atmospheric Pressure
PRES
in
5-day plot - Pressure Tendency
PTDY
in
5-day plot - Air Temperature
ATMP
°F
5-day plot - Water Temperature
WTMP
°F
5-day plot - Dew Point
DEWP
°F
5-day plot - Salinity
SAL
psu
5-day plot - Visibility
VIS
nmi
5-day plot - Tide (above MLLW)
TIDE
ft
2024-02-29 04:34 pmESE 3 4------ -5.1--11.4---
2024-02-29 04:23 pm E 4 5------ -5.1--11.4---
2024-02-29 04:14 pm E 3 4------ -4.9--11.2---
2024-02-29 04:03 pm E 3 5------ -4.9--11.6---
2024-02-29 03:54 pm E 3 5------ -4.4--11.2---
2024-02-29 03:44 pmESE 3 4------ -4.4--11.2---
2024-02-29 03:33 pm E 3 4------ -4.2--11.2---
2024-02-29 03:23 pm E 3 4------ -4.5--11.6---
2024-02-29 03:13 pmENE 2 3------ -4.4--11.4---
2024-02-29 02:53 pmENE 2 4------ -5.1--12.5---
2024-02-29 02:13 pm E 2 3------ -4.0--12.1---
2024-02-29 02:03 pm E 1 2------ -2.0--11.9---
2024-02-29 01:53 pm- 0 1------ -2.7--11.9---
2024-02-29 01:44 pm W 1 2------ -5.3--12.5---
2024-02-29 01:34 pmNNW 2 2------ -5.3--13.2---
2024-02-29 01:24 pm NW 1 2------ -5.4--13.4---
2024-02-29 01:14 pm NW 2 3------ -6.7--14.3---
2024-02-29 01:03 pmWNW 2 2------ -6.3--14.3---
2024-02-29 12:53 pm NW 1 2------ -4.9--14.4---
2024-02-29 12:44 pm- 0 2------ -3.6--13.5---
2024-02-29 12:33 pm- 0 1------ -4.2--13.9---
2024-02-29 12:23 pmNNW 1 2------ -5.6--14.6---
2024-02-29 12:14 pm- 0 1------ -4.9--13.9---
2024-02-29 12:04 pmENE 1 3------ -8.0--15.0---
2024-02-29 11:54 am NE 2 2------ -8.7--15.5---
2024-02-29 11:44 am NE 2 3------ -9.6--16.6---
2024-02-29 11:33 amENE 3 4-------10.1--16.8---
2024-02-29 11:24 am E 2 4-------12.1--17.9---
2024-02-29 11:14 amENE 3 4-------13.4--19.3---
2024-02-29 11:04 amENE 2 3-------12.3--18.8---
2024-02-29 10:54 am NE 1 2-------11.9--18.2---
2024-02-29 10:44 am NE 1 3-------11.6--18.2---
2024-02-29 10:34 am- 0 2-------11.7--17.9---
2024-02-29 10:24 amSSE 1 2-------12.5--18.4---
2024-02-29 10:14 am- 0 2-------12.6--18.4---
2024-02-29 10:03 amNNW 2 3-------12.5--18.4---
2024-02-29 09:53 am W 2 3-------12.1--18.4---
2024-02-29 09:43 amWSW 2 3-------12.1--18.2---
2024-02-29 09:33 am SW 2 2-------12.6--18.6---
2024-02-29 09:23 am- 0 2-------13.0--18.8---
2024-02-29 09:13 am SW 1 2-------13.7--19.1---
2024-02-29 09:03 amWNW 2 2-------14.6--19.8---
2024-02-29 08:54 am W 1 2-------14.6--19.8---
2024-02-29 08:44 am E 3 4-------14.4--20.2---
2024-02-29 08:34 amNNE 3 4-------11.6--18.0---
2024-02-29 08:24 am N 3 4-------10.7--16.6---
2024-02-29 08:14 am N 4 6-------13.4--18.6---
2024-02-29 08:04 am----------17.1--22.0---
2024-02-29 07:54 am----------15.7--20.7---
2024-02-29 07:44 amENE 3 5-------14.4--19.7---
2024-02-29 07:24 am N 3 5-------11.0--16.8---
2024-02-29 07:14 am N 3 4-------11.7--17.0---
2024-02-29 07:04 amNNW 3 5-------13.7--18.9---
2024-02-29 06:53 am SW 3 4-------14.6--19.3---
2024-02-29 06:43 am----------18.4--23.6---
2024-02-29 06:33 am NW 2 4-------14.1--19.7---
2024-02-29 06:23 amNNW 2 4-------13.4--18.8---
2024-02-29 06:14 amWNW 3 5-------13.2--18.4---
2024-02-29 06:04 amWSW 3 6-------13.4--18.8---
2024-02-29 05:53 am N 2 5-------13.0--18.4---
2024-02-29 05:43 am- 0 2-------12.6--18.0---
2024-02-29 05:34 am NE 2 2-------13.7--18.6---
2024-02-29 05:24 am----------15.7--20.6---
2024-02-29 05:14 am----------15.9--20.9---
2024-02-29 05:04 am----------15.9--20.9---
2024-02-29 04:54 am NE 3 4-------14.4--19.3---
2024-02-29 04:44 am----------15.5--20.6---
2024-02-29 04:34 am SW 2 5-------15.2--20.7---
2024-02-29 04:23 amNNE 3 4-------12.8--18.2---
2024-02-29 04:14 am N 2 5-------12.1--17.3---
2024-02-29 04:04 am NE 2 5-------13.2--18.0---
2024-02-29 03:53 am----------15.7--20.6---
2024-02-29 03:43 amNNE 2 3-------14.8--20.4---
2024-02-29 03:34 am N 3 4-------14.1--19.1---
2024-02-29 03:23 am S 3 4-------15.3--20.0---
2024-02-29 03:13 am----------17.7--22.7---
2024-02-29 03:04 am NW 1 4-------14.8--20.6---
2024-02-29 02:53 amNNE 1 3-------11.6--17.9---
2024-02-29 02:43 amSSW 1 2-------10.5--16.2---
2024-02-29 02:33 amNNE 1 3-------11.9--17.3---
2024-02-29 02:23 amENE 1 3-------11.4--16.8---
2024-02-29 02:13 amENE 2 4-------13.2--18.4---
2024-02-29 02:04 am NE 3 5-------12.6--18.0---
2024-02-29 01:53 am NE 3 6-------11.9--17.5---
2024-02-29 01:43 am NE 2 3-------12.6--18.2---
2024-02-29 01:34 am- 0 2-------11.9--17.7---
2024-02-29 01:24 am E 3 5-------13.2--18.6---
2024-02-29 01:14 am E 3 6-------13.2--18.4---
2024-02-29 01:03 am----------14.6--19.7---
2024-02-29 12:53 am----------15.5--20.6---
2024-02-29 12:44 am----------14.6--19.7---
2024-02-29 12:34 am----------14.4--19.7---
2024-02-29 12:23 amENE 2 5-------13.4--18.8---
2024-02-29 12:14 am NE 2 4-------12.6--18.4---
2024-02-29 12:03 am NW 2 4------ -9.8--16.1---
2024-02-28 11:53 pmWNW 2 3------ -9.9--15.9---
2024-02-28 11:44 pm NW 2 3------ -9.9--15.9---
2024-02-28 11:33 pmNNW 2 3-------10.5--16.2---
2024-02-28 11:23 pm NW 3 4-------11.7--17.1---
2024-02-28 11:14 pm NW 3 4-------11.4--17.5---
2024-02-28 11:04 pmENE 2 5------ -9.9--16.1---
2024-02-28 10:54 pm NE 3 5------ -8.1--15.2---
2024-02-28 10:44 pm NE 1 2------ -8.0--14.6---
2024-02-28 10:33 pm N 1 3------ -8.9--14.8---
2024-02-28 10:24 pm NE 2 4------ -9.0--15.2---
2024-02-28 10:13 pmENE 4 4------ -8.5--15.0---
2024-02-28 10:04 pm E 4 5-------10.1--15.9---
2024-02-28 09:53 pmENE 3 5-------10.1--16.2---
2024-02-28 09:43 pmENE 1 3------ -8.1--14.6---
2024-02-28 09:33 pmWNW 1 2------ -8.7--15.0---
2024-02-28 09:23 pm E 3 5------ -8.7--15.2---
2024-02-28 09:13 pm NE 2 4------ -7.4--14.3---
2024-02-28 09:03 pm NE 1 2------ -8.5--14.8---
2024-02-28 08:53 pmESE 3 6------ -9.2--15.3---
2024-02-28 08:43 pmWNW 3 6------ -9.0--15.7---
2024-02-28 08:33 pmWNW 4 6------ -9.4--15.9---
2024-02-28 08:23 pmWNW 3 5------ -7.4--13.9---
2024-02-28 08:14 pm NW 3 5------ -7.8--13.9---
2024-02-28 08:03 pmWNW 3 5------ -8.7--14.8---
2024-02-28 07:54 pm NW 3 5------ -6.3--13.2---
2024-02-28 07:44 pmNNW 1 2------ -6.2--13.0---
2024-02-28 07:34 pm E 2 4------ -6.0--13.0---
2024-02-28 07:24 pmENE 3 3------ -5.6--13.0---
2024-02-28 07:14 pmENE 2 3------ -5.8--12.8---
2024-02-28 07:04 pm NE 2 4------ -5.6--12.8---
2024-02-28 06:54 pmENE 2 3------ -6.2--13.0---
2024-02-28 06:43 pmNNW 2 4------ -6.2--13.0---
2024-02-28 06:33 pmNNE 6 8------ -6.2--13.2---
2024-02-28 06:23 pm N 6 8------ -4.5--12.3---
2024-02-28 06:14 pmNNW 4 6------ -4.4--12.5---
2024-02-28 06:03 pm W 4 6------ -4.0--12.5---
2024-02-28 05:53 pmWSW 5 6------ -3.1--12.5---
2024-02-28 05:44 pmWSW 3 4------ -2.0--12.1---
2024-02-28 05:33 pmWSW 3 5------ -2.9--11.7---
2024-02-28 05:23 pmWNW 2 5------ -1.7--10.8---
2024-02-28 05:13 pmWNW 1 2------ -0.0--10.3---
2024-02-28 05:04 pmNNE 1 2------ 0.1--10.1---
2024-02-28 04:54 pmNNE 1 2------ -1.5--10.5---